sensor_id;sensor_type;location;lat;lon;timestamp;P1;durP1;ratioP1;P2;durP2;ratioP2
34019;SDS011;20895;51.034;3.742;2023-04-01T00:01:50;14.75;;;4.93;;
34019;SDS011;20895;51.034;3.742;2023-04-01T00:04:16;17.58;;;6.90;;
34019;SDS011;20895;51.034;3.742;2023-04-01T00:06:41;11.20;;;4.88;;
34019;SDS011;20895;51.034;3.742;2023-04-01T00:09:06;16.38;;;5.53;;
34019;SDS011;20895;51.034;3.742;2023-04-01T00:11:32;11.15;;;3.85;;
34019;SDS011;20895;51.034;3.742;2023-04-01T00:13:57;12.13;;;5.35;;
34019;SDS011;20895;51.034;3.742;2023-04-01T00:16:23;9.52;;;5.00;;
34019;SDS011;20895;51.034;3.742;2023-04-01T00:18:48;9.70;;;5.15;;
34019;SDS011;20895;51.034;3.742;2023-04-01T00:21:14;10.63;;;4.32;;
34019;SDS011;20895;51.034;3.742;2023-04-01T00:23:40;20.05;;;4.80;;
34019;SDS011;20895;51.034;3.742;2023-04-01T00:26:05;13.93;;;5.55;;
34019;SDS011;20895;51.034;3.742;2023-04-01T00:28:31;15.05;;;5.88;;
34019;SDS011;20895;51.034;3.742;2023-04-01T00:30:58;9.90;;;4.93;;
34019;SDS011;20895;51.034;3.742;2023-04-01T00:33:23;12.45;;;5.22;;
34019;SDS011;20895;51.034;3.742;2023-04-01T00:35:49;12.18;;;5.57;;
34019;SDS011;20895;51.034;3.742;2023-04-01T00:38:14;7.10;;;3.60;;
34019;SDS011;20895;51.034;3.742;2023-04-01T00:40:42;14.95;;;5.70;;
34019;SDS011;20895;51.034;3.742;2023-04-01T00:43:18;14.68;;;5.43;;
34019;SDS011;20895;51.034;3.742;2023-04-01T00:45:45;13.52;;;6.25;;
34019;SDS011;20895;51.034;3.742;2023-04-01T00:48:53;13.13;;;5.70;;
34019;SDS011;20895;51.034;3.742;2023-04-01T00:51:01;11.07;;;6.28;;
34019;SDS011;20895;51.034;3.742;2023-04-01T00:53:28;9.77;;;4.80;;
34019;SDS011;20895;51.034;3.742;2023-04-01T00:55:58;8.15;;;4.25;;
34019;SDS011;20895;51.034;3.742;2023-04-01T00:58:25;6.18;;;2.90;;
34019;SDS011;20895;51.034;3.742;2023-04-01T01:00:53;12.00;;;4.20;;
34019;SDS011;20895;51.034;3.742;2023-04-01T01:03:20;7.32;;;3.95;;
34019;SDS011;20895;51.034;3.742;2023-04-01T01:05:58;9.95;;;3.92;;
34019;SDS011;20895;51.034;3.742;2023-04-01T01:11:11;6.47;;;2.88;;
34019;SDS011;20895;51.034;3.742;2023-04-01T01:13:43;7.78;;;3.40;;
34019;SDS011;20895;51.034;3.742;2023-04-01T01:16:19;9.85;;;4.38;;
34019;SDS011;20895;51.034;3.742;2023-04-01T01:21:30;11.10;;;4.90;;
34019;SDS011;20895;51.034;3.742;2023-04-01T01:36:57;10.90;;;4.47;;
34019;SDS011;20895;51.034;3.742;2023-04-01T01:39:25;16.48;;;4.93;;
34019;SDS011;20895;51.034;3.742;2023-04-01T01:41:52;11.68;;;4.57;;
34019;SDS011;20895;51.034;3.742;2023-04-01T01:44:18;11.00;;;4.18;;
34019;SDS011;20895;51.034;3.742;2023-04-01T01:46:44;14.07;;;4.22;;
34019;SDS011;20895;51.034;3.742;2023-04-01T01:49:10;11.55;;;3.95;;
34019;SDS011;20895;51.034;3.742;2023-04-01T01:51:36;9.43;;;4.43;;
34019;SDS011;20895;51.034;3.742;2023-04-01T01:54:02;8.77;;;3.45;;
34019;SDS011;20895;51.034;3.742;2023-04-01T01:56:27;8.40;;;4.05;;
34019;SDS011;20895;51.034;3.742;2023-04-01T01:58:55;10.73;;;3.63;;
34019;SDS011;20895;51.034;3.742;2023-04-01T02:01:25;11.43;;;5.38;;
34019;SDS011;20895;51.034;3.742;2023-04-01T02:03:51;9.65;;;3.92;;
34019;SDS011;20895;51.034;3.742;2023-04-01T02:06:18;10.68;;;5.05;;
34019;SDS011;20895;51.034;3.742;2023-04-01T02:11:13;11.93;;;4.38;;
34019;SDS011;20895;51.034;3.742;2023-04-01T02:13:45;8.35;;;3.65;;
34019;SDS011;20895;51.034;3.742;2023-04-01T02:19:04;10.02;;;4.13;;
34019;SDS011;20895;51.034;3.742;2023-04-01T02:21:32;13.38;;;5.07;;
34019;SDS011;20895;51.034;3.742;2023-04-01T02:23:58;9.90;;;3.05;;
34019;SDS011;20895;51.034;3.742;2023-04-01T02:26:25;10.73;;;4.35;;
34019;SDS011;20895;51.034;3.742;2023-04-01T02:28:52;10.02;;;4.32;;
34019;SDS011;20895;51.034;3.742;2023-04-01T02:31:18;11.45;;;4.60;;
34019;SDS011;20895;51.034;3.742;2023-04-01T02:33:43;11.45;;;4.70;;
34019;SDS011;20895;51.034;3.742;2023-04-01T02:36:12;11.15;;;4.80;;
34019;SDS011;20895;51.034;3.742;2023-04-01T02:38:38;14.27;;;5.40;;
34019;SDS011;20895;51.034;3.742;2023-04-01T02:41:03;13.45;;;4.47;;
34019;SDS011;20895;51.034;3.742;2023-04-01T02:43:30;10.68;;;4.15;;
34019;SDS011;20895;51.034;3.742;2023-04-01T02:45:55;12.07;;;5.40;;
34019;SDS011;20895;51.034;3.742;2023-04-01T02:48:20;15.20;;;5.78;;
34019;SDS011;20895;51.034;3.742;2023-04-01T02:50:46;14.35;;;5.75;;
34019;SDS011;20895;51.034;3.742;2023-04-01T02:53:11;10.55;;;5.43;;
34019;SDS011;20895;51.034;3.742;2023-04-01T02:55:36;16.58;;;6.13;;
34019;SDS011;20895;51.034;3.742;2023-04-01T02:58:02;13.90;;;5.78;;
34019;SDS011;20895;51.034;3.742;2023-04-01T03:00:27;14.77;;;5.45;;
34019;SDS011;20895;51.034;3.742;2023-04-01T03:02:53;11.55;;;5.43;;
34019;SDS011;20895;51.034;3.742;2023-04-01T03:05:18;9.48;;;4.97;;
34019;SDS011;20895;51.034;3.742;2023-04-01T03:07:43;12.45;;;5.55;;
34019;SDS011;20895;51.034;3.742;2023-04-01T03:10:09;12.85;;;4.05;;
34019;SDS011;20895;51.034;3.742;2023-04-01T03:12:34;15.70;;;5.60;;
34019;SDS011;20895;51.034;3.742;2023-04-01T03:15:00;12.45;;;5.32;;
34019;SDS011;20895;51.034;3.742;2023-04-01T03:17:25;13.05;;;5.88;;
34019;SDS011;20895;51.034;3.742;2023-04-01T03:19:50;13.23;;;4.32;;
34019;SDS011;20895;51.034;3.742;2023-04-01T03:22:16;13.25;;;5.40;;
34019;SDS011;20895;51.034;3.742;2023-04-01T03:24:41;11.93;;;5.05;;
34019;SDS011;20895;51.034;3.742;2023-04-01T03:27:06;14.80;;;5.10;;
34019;SDS011;20895;51.034;3.742;2023-04-01T03:29:32;11.45;;;3.85;;
34019;SDS011;20895;51.034;3.742;2023-04-01T03:31:57;7.13;;;4.38;;
34019;SDS011;20895;51.034;3.742;2023-04-01T03:34:24;11.43;;;4.38;;
34019;SDS011;20895;51.034;3.742;2023-04-01T03:36:49;10.27;;;4.55;;
34019;SDS011;20895;51.034;3.742;2023-04-01T03:39:16;4.38;;;3.22;;
34019;SDS011;20895;51.034;3.742;2023-04-01T03:41:43;5.20;;;2.92;;
34019;SDS011;20895;51.034;3.742;2023-04-01T03:44:09;7.43;;;3.05;;
34019;SDS011;20895;51.034;3.742;2023-04-01T03:46:34;6.40;;;2.45;;
34019;SDS011;20895;51.034;3.742;2023-04-01T03:48:59;9.88;;;2.83;;
34019;SDS011;20895;51.034;3.742;2023-04-01T03:51:25;6.72;;;2.35;;
34019;SDS011;20895;51.034;3.742;2023-04-01T03:53:50;7.90;;;3.22;;
34019;SDS011;20895;51.034;3.742;2023-04-01T03:56:15;8.85;;;3.83;;
34019;SDS011;20895;51.034;3.742;2023-04-01T03:58:41;5.82;;;3.70;;
34019;SDS011;20895;51.034;3.742;2023-04-01T04:01:17;6.93;;;3.17;;
34019;SDS011;20895;51.034;3.742;2023-04-01T04:03:42;4.22;;;2.67;;
34019;SDS011;20895;51.034;3.742;2023-04-01T04:06:16;4.80;;;2.67;;
34019;SDS011;20895;51.034;3.742;2023-04-01T04:08:41;7.13;;;3.28;;
34019;SDS011;20895;51.034;3.742;2023-04-01T04:11:06;4.75;;;2.42;;
34019;SDS011;20895;51.034;3.742;2023-04-01T04:13:32;4.53;;;2.60;;
34019;SDS011;20895;51.034;3.742;2023-04-01T04:15:57;4.32;;;2.55;;
34019;SDS011;20895;51.034;3.742;2023-04-01T04:18:23;6.57;;;2.40;;
34019;SDS011;20895;51.034;3.742;2023-04-01T04:20:48;3.97;;;2.78;;
34019;SDS011;20895;51.034;3.742;2023-04-01T04:23:16;7.70;;;2.60;;
34019;SDS011;20895;51.034;3.742;2023-04-01T04:25:41;4.05;;;2.72;;
34019;SDS011;20895;51.034;3.742;2023-04-01T04:28:06;2.83;;;2.20;;
34019;SDS011;20895;51.034;3.742;2023-04-01T04:30:31;3.97;;;2.38;;
34019;SDS011;20895;51.034;3.742;2023-04-01T04:32:57;4.15;;;2.92;;
34019;SDS011;20895;51.034;3.742;2023-04-01T04:35:22;7.35;;;4.13;;
34019;SDS011;20895;51.034;3.742;2023-04-01T04:37:47;7.07;;;3.45;;
34019;SDS011;20895;51.034;3.742;2023-04-01T04:40:13;6.97;;;4.07;;
34019;SDS011;20895;51.034;3.742;2023-04-01T04:42:38;7.03;;;4.18;;
34019;SDS011;20895;51.034;3.742;2023-04-01T04:45:03;8.05;;;4.30;;
34019;SDS011;20895;51.034;3.742;2023-04-01T04:47:29;7.78;;;5.00;;
34019;SDS011;20895;51.034;3.742;2023-04-01T04:49:54;6.05;;;4.03;;
34019;SDS011;20895;51.034;3.742;2023-04-01T04:52:19;8.68;;;4.65;;
34019;SDS011;20895;51.034;3.742;2023-04-01T04:54:45;10.45;;;5.35;;
34019;SDS011;20895;51.034;3.742;2023-04-01T04:57:10;8.93;;;5.40;;
34019;SDS011;20895;51.034;3.742;2023-04-01T04:59:35;9.68;;;5.43;;
34019;SDS011;20895;51.034;3.742;2023-04-01T05:02:01;6.85;;;3.55;;
34019;SDS011;20895;51.034;3.742;2023-04-01T05:04:26;7.85;;;5.15;;
34019;SDS011;20895;51.034;3.742;2023-04-01T05:06:52;10.48;;;4.97;;
34019;SDS011;20895;51.034;3.742;2023-04-01T05:09:17;8.43;;;5.97;;
34019;SDS011;20895;51.034;3.742;2023-04-01T05:11:42;7.47;;;3.92;;
34019;SDS011;20895;51.034;3.742;2023-04-01T05:14:12;9.95;;;5.78;;
34019;SDS011;20895;51.034;3.742;2023-04-01T05:16:37;8.60;;;5.05;;
34019;SDS011;20895;51.034;3.742;2023-04-01T05:19:02;9.32;;;4.47;;
34019;SDS011;20895;51.034;3.742;2023-04-01T05:21:27;8.55;;;5.10;;
34019;SDS011;20895;51.034;3.742;2023-04-01T05:23:53;4.78;;;3.42;;
34019;SDS011;20895;51.034;3.742;2023-04-01T05:26:18;12.43;;;5.30;;
34019;SDS011;20895;51.034;3.742;2023-04-01T05:28:43;12.80;;;5.10;;
34019;SDS011;20895;51.034;3.742;2023-04-01T05:31:08;11.23;;;5.03;;
34019;SDS011;20895;51.034;3.742;2023-04-01T05:33:34;8.88;;;5.18;;
34019;SDS011;20895;51.034;3.742;2023-04-01T05:38:54;7.63;;;5.38;;
34019;SDS011;20895;51.034;3.742;2023-04-01T05:41:19;9.52;;;5.30;;
34019;SDS011;20895;51.034;3.742;2023-04-01T05:43:44;7.47;;;4.30;;
34019;SDS011;20895;51.034;3.742;2023-04-01T05:46:10;8.38;;;4.80;;
34019;SDS011;20895;51.034;3.742;2023-04-01T05:48:35;11.00;;;4.28;;
34019;SDS011;20895;51.034;3.742;2023-04-01T05:51:01;8.60;;;4.75;;
34019;SDS011;20895;51.034;3.742;2023-04-01T05:53:26;9.38;;;5.45;;
34019;SDS011;20895;51.034;3.742;2023-04-01T05:55:51;7.47;;;5.32;;
34019;SDS011;20895;51.034;3.742;2023-04-01T05:58:17;6.47;;;3.53;;
34019;SDS011;20895;51.034;3.742;2023-04-01T06:00:42;7.03;;;3.55;;
34019;SDS011;20895;51.034;3.742;2023-04-01T06:03:07;7.88;;;4.18;;
34019;SDS011;20895;51.034;3.742;2023-04-01T06:05:42;6.00;;;3.65;;
34019;SDS011;20895;51.034;3.742;2023-04-01T06:08:12;7.93;;;3.42;;
34019;SDS011;20895;51.034;3.742;2023-04-01T06:21:07;6.50;;;2.63;;
34019;SDS011;20895;51.034;3.742;2023-04-01T06:23:39;2.17;;;1.98;;
34019;SDS011;20895;51.034;3.742;2023-04-01T06:28:56;1.00;;;1.00;;
34019;SDS011;20895;51.034;3.742;2023-04-01T06:34:04;2.13;;;1.70;;
34019;SDS011;20895;51.034;3.742;2023-04-01T06:36:46;4.22;;;1.77;;
34019;SDS011;20895;51.034;3.742;2023-04-01T06:44:52;4.32;;;1.80;;
34019;SDS011;20895;51.034;3.742;2023-04-01T06:55:17;4.25;;;1.52;;
34019;SDS011;20895;51.034;3.742;2023-04-01T06:57:46;3.53;;;1.83;;
34019;SDS011;20895;51.034;3.742;2023-04-01T07:00:14;3.75;;;1.60;;
34019;SDS011;20895;51.034;3.742;2023-04-01T07:02:48;1.30;;;1.20;;
34019;SDS011;20895;51.034;3.742;2023-04-01T07:05:18;5.53;;;1.83;;
34019;SDS011;20895;51.034;3.742;2023-04-01T07:07:45;1.95;;;1.30;;
34019;SDS011;20895;51.034;3.742;2023-04-01T07:10:23;3.25;;;1.55;;
34019;SDS011;20895;51.034;3.742;2023-04-01T07:12:51;5.90;;;1.70;;
34019;SDS011;20895;51.034;3.742;2023-04-01T07:15:24;2.50;;;1.50;;
34019;SDS011;20895;51.034;3.742;2023-04-01T07:17:52;2.83;;;1.45;;
34019;SDS011;20895;51.034;3.742;2023-04-01T07:25:13;4.07;;;1.50;;
34019;SDS011;20895;51.034;3.742;2023-04-01T07:27:39;2.08;;;1.55;;
34019;SDS011;20895;51.034;3.742;2023-04-01T07:30:12;2.08;;;1.38;;
34019;SDS011;20895;51.034;3.742;2023-04-01T07:32:42;2.42;;;1.40;;
34019;SDS011;20895;51.034;3.742;2023-04-01T07:38:18;3.47;;;1.55;;
34019;SDS011;20895;51.034;3.742;2023-04-01T07:48:10;2.55;;;1.75;;
34019;SDS011;20895;51.034;3.742;2023-04-01T08:00:31;1.90;;;1.70;;
34019;SDS011;20895;51.034;3.742;2023-04-01T08:05:28;1.80;;;1.33;;
34019;SDS011;20895;51.034;3.742;2023-04-01T08:10:22;5.65;;;1.60;;
34019;SDS011;20895;51.034;3.742;2023-04-01T08:25:27;4.78;;;2.05;;
34019;SDS011;20895;51.034;3.742;2023-04-01T08:27:55;3.05;;;1.85;;
34019;SDS011;20895;51.034;3.742;2023-04-01T08:30:35;6.03;;;2.58;;
34019;SDS011;20895;51.034;3.742;2023-04-01T08:33:24;3.25;;;1.90;;
34019;SDS011;20895;51.034;3.742;2023-04-01T08:35:53;3.75;;;1.45;;
34019;SDS011;20895;51.034;3.742;2023-04-01T08:41:26;5.50;;;2.53;;
34019;SDS011;20895;51.034;3.742;2023-04-01T08:44:15;4.93;;;2.20;;
34019;SDS011;20895;51.034;3.742;2023-04-01T09:05:34;13.20;;;3.05;;
34019;SDS011;20895;51.034;3.742;2023-04-01T09:28:08;2.95;;;1.13;;
34019;SDS011;20895;51.034;3.742;2023-04-01T09:38:56;2.50;;;1.23;;
34019;SDS011;20895;51.034;3.742;2023-04-01T09:51:58;2.75;;;1.75;;
34019;SDS011;20895;51.034;3.742;2023-04-01T10:49:37;3.42;;;1.35;;
34019;SDS011;20895;51.034;3.742;2023-04-01T10:54:29;2.78;;;1.25;;
34019;SDS011;20895;51.034;3.742;2023-04-01T10:57:19;3.35;;;1.85;;
34019;SDS011;20895;51.034;3.742;2023-04-01T11:02:38;1.00;;;1.00;;
34019;SDS011;20895;51.034;3.742;2023-04-01T11:33:19;2.95;;;1.23;;
34019;SDS011;20895;51.034;3.742;2023-04-01T11:35:56;1.73;;;1.60;;
34019;SDS011;20895;51.034;3.742;2023-04-01T11:38:24;3.42;;;1.58;;
34019;SDS011;20895;51.034;3.742;2023-04-01T11:40:59;3.13;;;1.20;;
34019;SDS011;20895;51.034;3.742;2023-04-01T11:43:29;3.85;;;1.30;;
34019;SDS011;20895;51.034;3.742;2023-04-01T11:51:07;2.17;;;1.63;;
34019;SDS011;20895;51.034;3.742;2023-04-01T12:01:36;5.68;;;1.52;;
34019;SDS011;20895;51.034;3.742;2023-04-01T12:24:49;1.80;;;1.60;;
34019;SDS011;20895;51.034;3.742;2023-04-01T12:27:29;3.55;;;1.55;;
34019;SDS011;20895;51.034;3.742;2023-04-01T12:38:28;3.33;;;1.77;;
34019;SDS011;20895;51.034;3.742;2023-04-01T13:01:36;4.43;;;1.02;;
34019;SDS011;20895;51.034;3.742;2023-04-01T13:04:15;2.42;;;1.05;;
34019;SDS011;20895;51.034;3.742;2023-04-01T13:07:08;2.05;;;1.27;;
34019;SDS011;20895;51.034;3.742;2023-04-01T13:25:04;3.80;;;1.40;;
34019;SDS011;20895;51.034;3.742;2023-04-01T13:27:35;2.53;;;1.45;;
34019;SDS011;20895;51.034;3.742;2023-04-01T13:42:57;2.38;;;1.10;;
34019;SDS011;20895;51.034;3.742;2023-04-01T13:45:26;2.63;;;1.30;;
34019;SDS011;20895;51.034;3.742;2023-04-01T13:48:11;2.92;;;1.38;;
34019;SDS011;20895;51.034;3.742;2023-04-01T13:50:46;5.22;;;1.40;;
34019;SDS011;20895;51.034;3.742;2023-04-01T13:53:33;3.33;;;1.00;;
34019;SDS011;20895;51.034;3.742;2023-04-01T14:06:30;1.00;;;0.90;;
34019;SDS011;20895;51.034;3.742;2023-04-01T14:11:55;1.73;;;0.90;;
34019;SDS011;20895;51.034;3.742;2023-04-01T14:14:27;3.20;;;1.20;;
34019;SDS011;20895;51.034;3.742;2023-04-01T14:19:34;1.95;;;0.95;;
34019;SDS011;20895;51.034;3.742;2023-04-01T14:22:13;1.63;;;0.80;;
34019;SDS011;20895;51.034;3.742;2023-04-01T14:32:56;3.08;;;1.17;;
34019;SDS011;20895;51.034;3.742;2023-04-01T14:40:27;1.73;;;1.10;;
34019;SDS011;20895;51.034;3.742;2023-04-01T14:48:07;4.78;;;1.45;;
34019;SDS011;20895;51.034;3.742;2023-04-01T14:50:44;3.25;;;1.15;;
34019;SDS011;20895;51.034;3.742;2023-04-01T14:55:58;2.30;;;1.15;;
34019;SDS011;20895;51.034;3.742;2023-04-01T14:58:25;3.83;;;1.27;;
34019;SDS011;20895;51.034;3.742;2023-04-01T15:05:55;2.88;;;1.40;;
34019;SDS011;20895;51.034;3.742;2023-04-01T15:21:40;2.28;;;1.10;;
34019;SDS011;20895;51.034;3.742;2023-04-01T15:24:24;2.22;;;1.20;;
34019;SDS011;20895;51.034;3.742;2023-04-01T15:31:49;2.00;;;1.40;;
34019;SDS011;20895;51.034;3.742;2023-04-01T15:39:38;4.28;;;1.48;;
34019;SDS011;20895;51.034;3.742;2023-04-01T15:42:13;3.47;;;1.27;;
34019;SDS011;20895;51.034;3.742;2023-04-01T15:50:40;4.95;;;1.45;;
34019;SDS011;20895;51.034;3.742;2023-04-01T15:52:38;2.92;;;1.40;;
34019;SDS011;20895;51.034;3.742;2023-04-01T15:55:16;2.78;;;1.33;;
34019;SDS011;20895;51.034;3.742;2023-04-01T16:00:23;5.47;;;1.60;;
34019;SDS011;20895;51.034;3.742;2023-04-01T16:05:51;3.30;;;1.73;;
34019;SDS011;20895;51.034;3.742;2023-04-01T16:16:23;2.03;;;1.63;;
34019;SDS011;20895;51.034;3.742;2023-04-01T16:21:41;2.63;;;1.48;;
34019;SDS011;20895;51.034;3.742;2023-04-01T16:31:51;3.75;;;1.85;;
34019;SDS011;20895;51.034;3.742;2023-04-01T16:34:21;4.18;;;1.70;;
34019;SDS011;20895;51.034;3.742;2023-04-01T16:41:49;5.35;;;2.08;;
34019;SDS011;20895;51.034;3.742;2023-04-01T16:44:21;3.33;;;1.88;;
34019;SDS011;20895;51.034;3.742;2023-04-01T16:46:57;3.20;;;1.67;;
34019;SDS011;20895;51.034;3.742;2023-04-01T16:49:36;3.80;;;1.88;;
34019;SDS011;20895;51.034;3.742;2023-04-01T16:57:04;2.92;;;1.55;;
34019;SDS011;20895;51.034;3.742;2023-04-01T16:59:37;3.10;;;1.90;;
34019;SDS011;20895;51.034;3.742;2023-04-01T17:02:12;3.90;;;1.90;;
34019;SDS011;20895;51.034;3.742;2023-04-01T17:20:12;9.13;;;4.32;;
34019;SDS011;20895;51.034;3.742;2023-04-01T17:22:44;5.05;;;2.92;;
34019;SDS011;20895;51.034;3.742;2023-04-01T17:28:30;2.40;;;2.20;;
34019;SDS011;20895;51.034;3.742;2023-04-01T17:30:39;5.88;;;2.58;;
34019;SDS011;20895;51.034;3.742;2023-04-01T17:35:59;3.70;;;1.90;;
34019;SDS011;20895;51.034;3.742;2023-04-01T17:38:48;5.40;;;2.53;;
34019;SDS011;20895;51.034;3.742;2023-04-01T17:41:26;3.80;;;2.70;;
34019;SDS011;20895;51.034;3.742;2023-04-01T17:43:58;5.32;;;2.97;;
34019;SDS011;20895;51.034;3.742;2023-04-01T17:51:37;10.18;;;4.43;;
34019;SDS011;20895;51.034;3.742;2023-04-01T17:54:11;8.02;;;4.18;;
34019;SDS011;20895;51.034;3.742;2023-04-01T18:12:33;9.57;;;4.80;;
34019;SDS011;20895;51.034;3.742;2023-04-01T18:23:02;14.05;;;5.63;;
34019;SDS011;20895;51.034;3.742;2023-04-01T18:25:35;16.77;;;6.18;;
34019;SDS011;20895;51.034;3.742;2023-04-01T18:30:37;13.60;;;6.40;;
34019;SDS011;20895;51.034;3.742;2023-04-01T18:33:07;10.20;;;6.38;;
34019;SDS011;20895;51.034;3.742;2023-04-01T18:38:12;12.73;;;8.23;;
34019;SDS011;20895;51.034;3.742;2023-04-01T18:43:12;12.57;;;6.63;;
34019;SDS011;20895;51.034;3.742;2023-04-01T18:45:44;18.67;;;8.57;;
34019;SDS011;20895;51.034;3.742;2023-04-01T18:50:56;12.52;;;8.43;;
34019;SDS011;20895;51.034;3.742;2023-04-01T18:53:38;17.10;;;8.68;;
34019;SDS011;20895;51.034;3.742;2023-04-01T18:56:06;23.20;;;12.35;;
34019;SDS011;20895;51.034;3.742;2023-04-01T18:58:36;20.00;;;10.00;;
34019;SDS011;20895;51.034;3.742;2023-04-01T19:01:28;16.83;;;9.13;;
34019;SDS011;20895;51.034;3.742;2023-04-01T19:06:53;20.77;;;9.52;;
34019;SDS011;20895;51.034;3.742;2023-04-01T19:24:40;16.92;;;8.65;;
34019;SDS011;20895;51.034;3.742;2023-04-01T19:32:25;20.77;;;9.15;;
34019;SDS011;20895;51.034;3.742;2023-04-01T19:37:50;19.17;;;8.45;;
34019;SDS011;20895;51.034;3.742;2023-04-01T19:40:21;19.80;;;7.88;;
34019;SDS011;20895;51.034;3.742;2023-04-01T19:52:51;20.25;;;6.82;;
34019;SDS011;20895;51.034;3.742;2023-04-01T20:00:26;17.02;;;6.60;;
34019;SDS011;20895;51.034;3.742;2023-04-01T20:03:05;20.98;;;7.00;;
34019;SDS011;20895;51.034;3.742;2023-04-01T20:08:19;24.08;;;7.32;;
34019;SDS011;20895;51.034;3.742;2023-04-01T20:10:51;23.73;;;8.27;;
34019;SDS011;20895;51.034;3.742;2023-04-01T20:14:04;14.80;;;7.20;;
34019;SDS011;20895;51.034;3.742;2023-04-01T20:16:07;15.73;;;7.32;;
34019;SDS011;20895;51.034;3.742;2023-04-01T20:18:35;19.42;;;9.18;;
34019;SDS011;20895;51.034;3.742;2023-04-01T20:26:32;22.42;;;8.80;;
34019;SDS011;20895;51.034;3.742;2023-04-01T20:29:12;23.08;;;7.80;;
34019;SDS011;20895;51.034;3.742;2023-04-01T20:31:41;18.00;;;8.27;;
34019;SDS011;20895;51.034;3.742;2023-04-01T20:44:46;27.73;;;10.50;;
34019;SDS011;20895;51.034;3.742;2023-04-01T20:48:03;20.67;;;10.55;;
34019;SDS011;20895;51.034;3.742;2023-04-01T20:50:11;21.23;;;11.10;;
34019;SDS011;20895;51.034;3.742;2023-04-01T20:52:49;20.02;;;9.13;;
34019;SDS011;20895;51.034;3.742;2023-04-01T20:55:21;20.55;;;9.93;;
34019;SDS011;20895;51.034;3.742;2023-04-01T20:58:05;25.63;;;11.02;;
34019;SDS011;20895;51.034;3.742;2023-04-01T21:03:23;24.73;;;11.68;;
34019;SDS011;20895;51.034;3.742;2023-04-01T21:05:57;26.02;;;12.65;;
34019;SDS011;20895;51.034;3.742;2023-04-01T21:11:13;28.17;;;13.35;;
34019;SDS011;20895;51.034;3.742;2023-04-01T21:13:52;25.30;;;11.98;;
34019;SDS011;20895;51.034;3.742;2023-04-01T21:51:38;35.15;;;14.15;;
34019;SDS011;20895;51.034;3.742;2023-04-01T21:54:45;32.08;;;13.57;;
34019;SDS011;20895;51.034;3.742;2023-04-01T22:07:15;33.55;;;13.95;;
34019;SDS011;20895;51.034;3.742;2023-04-01T22:12:15;29.35;;;14.40;;
34019;SDS011;20895;51.034;3.742;2023-04-01T22:32:28;37.03;;;16.63;;
34019;SDS011;20895;51.034;3.742;2023-04-01T22:42:47;33.05;;;15.43;;
34019;SDS011;20895;51.034;3.742;2023-04-01T22:48:18;22.35;;;14.38;;
34019;SDS011;20895;51.034;3.742;2023-04-01T22:55:46;26.23;;;15.73;;
34019;SDS011;20895;51.034;3.742;2023-04-01T22:58:18;39.30;;;17.05;;
34019;SDS011;20895;51.034;3.742;2023-04-01T23:00:47;31.67;;;15.05;;
34019;SDS011;20895;51.034;3.742;2023-04-01T23:05:55;32.67;;;16.58;;
34019;SDS011;20895;51.034;3.742;2023-04-01T23:10:49;31.92;;;17.75;;
34019;SDS011;20895;51.034;3.742;2023-04-01T23:13:25;28.30;;;14.63;;
34019;SDS011;20895;51.034;3.742;2023-04-01T23:15:52;31.80;;;17.58;;
34019;SDS011;20895;51.034;3.742;2023-04-01T23:21:01;29.63;;;17.85;;
34019;SDS011;20895;51.034;3.742;2023-04-01T23:28:48;34.13;;;18.90;;
34019;SDS011;20895;51.034;3.742;2023-04-01T23:33:59;34.72;;;19.33;;
34019;SDS011;20895;51.034;3.742;2023-04-01T23:36:25;33.78;;;20.83;;
34019;SDS011;20895;51.034;3.742;2023-04-01T23:38:50;32.58;;;21.05;;
34019;SDS011;20895;51.034;3.742;2023-04-01T23:41:34;31.73;;;21.67;;
34019;SDS011;20895;51.034;3.742;2023-04-01T23:46:25;34.50;;;22.47;;
34019;SDS011;20895;51.034;3.742;2023-04-01T23:48:50;27.98;;;22.00;;
34019;SDS011;20895;51.034;3.742;2023-04-01T23:51:26;36.67;;;24.85;;
34019;SDS011;20895;51.034;3.742;2023-04-01T23:56:39;39.88;;;26.55;;
34019;SDS011;20895;51.034;3.742;2023-04-01T23:59:10;28.83;;;24.15;;
